createdAt,value
2017-01-09T00:00:47.829Z,0
2017-01-09T00:01:48.435Z,0
2017-01-09T00:02:47.946Z,0
2017-01-09T00:03:47.997Z,0
2017-01-09T00:04:48.348Z,0
2017-01-09T00:05:47.861Z,0
2017-01-09T00:06:47.915Z,0
2017-01-09T00:07:47.526Z,0
2017-01-09T00:08:47.536Z,0
2017-01-09T00:09:47.884Z,0
2017-01-09T00:10:47.944Z,0
2017-01-09T00:11:47.906Z,0
2017-01-09T00:12:47.957Z,0
2017-01-09T00:13:47.965Z,0
2017-01-09T00:14:47.577Z,0
2017-01-09T00:15:47.605Z,0
2017-01-09T00:16:48.290Z,0
2017-01-09T00:17:47.649Z,0
2017-01-09T00:18:48.050Z,0
2017-01-09T00:19:47.217Z,0
2017-01-09T00:20:48.406Z,0
2017-01-09T00:21:48.018Z,0
2017-01-09T00:22:48.369Z,0
2017-01-09T00:23:48.377Z,0
2017-01-09T00:24:47.992Z,0
2017-01-09T00:25:48.096Z,0
2017-01-09T00:26:48.454Z,0
2017-01-09T00:27:49.119Z,0
2017-01-09T00:28:48.715Z,0
2017-01-09T00:29:48.776Z,48
2017-01-09T00:30:48.082Z,72
2017-01-09T00:31:48.535Z,0
2017-01-09T00:32:48.094Z,0
2017-01-09T00:33:47.256Z,0
2017-01-09T00:34:47.317Z,0
2017-01-09T00:35:48.061Z,0
2017-01-09T00:36:48.087Z,0
2017-01-09T00:37:48.177Z,0
2017-01-09T00:38:50.008Z,0
2017-01-09T00:39:48.097Z,0
2017-01-09T00:40:49.355Z,0
2017-01-09T00:41:48.505Z,0
2017-01-09T00:42:48.167Z,0
2017-01-09T00:43:48.171Z,0
2017-01-09T00:44:47.783Z,0
2017-01-09T00:45:48.629Z,0
2017-01-09T00:46:47.797Z,0
2017-01-09T00:47:47.756Z,0
2017-01-09T00:48:47.787Z,0
2017-01-09T00:49:48.313Z,0
2017-01-09T00:50:48.217Z,0
2017-01-09T00:51:50.143Z,0
2017-01-09T00:52:48.189Z,0
2017-01-09T00:53:48.212Z,0
2017-01-09T00:54:48.644Z,0
2017-01-09T00:55:48.698Z,0
2017-01-09T00:56:47.913Z,0
2017-01-09T00:57:47.470Z,0
2017-01-09T00:58:49.374Z,0
2017-01-09T00:59:48.227Z,0
2017-01-09T01:00:49.154Z,0
2017-01-09T01:01:47.451Z,0
2017-01-09T01:02:48.525Z,0
2017-01-09T01:03:48.752Z,0
2017-01-09T01:04:47.477Z,0
2017-01-09T01:05:48.774Z,0
2017-01-09T01:06:47.877Z,0
2017-01-09T01:07:48.587Z,0
2017-01-09T01:08:48.340Z,0
2017-01-09T01:09:47.899Z,0
2017-01-09T01:10:48.354Z,0
2017-01-09T01:11:50.104Z,0
2017-01-09T01:12:47.925Z,0
2017-01-09T01:13:48.984Z,0
2017-01-09T01:14:48.652Z,0
2017-01-09T01:15:48.339Z,0
2017-01-09T01:16:48.049Z,0
2017-01-09T01:17:47.612Z,0
2017-01-09T01:18:47.718Z,0
2017-01-09T01:19:48.811Z,0
2017-01-09T01:20:48.773Z,0
2017-01-09T01:21:49.080Z,0
2017-01-09T01:22:48.436Z,0
2017-01-09T01:23:48.097Z,0
2017-01-09T01:24:49.773Z,0
2017-01-09T01:25:47.614Z,0
2017-01-09T01:26:48.516Z,0
2017-01-09T01:27:48.028Z,0
2017-01-09T01:28:48.434Z,0
2017-01-09T01:29:48.139Z,0
2017-01-09T01:30:48.544Z,0
2017-01-09T01:31:49.594Z,0
2017-01-09T01:32:48.905Z,0
2017-01-09T01:33:48.515Z,0
2017-01-09T01:34:48.517Z,0
2017-01-09T01:35:48.574Z,0
2017-01-09T01:36:48.141Z,0
2017-01-09T01:37:48.539Z,0
2017-01-09T01:38:48.594Z,0
2017-01-09T01:39:48.502Z,0
2017-01-09T01:40:48.166Z,0
2017-01-09T01:41:48.167Z,0
2017-01-09T01:42:49.599Z,0
2017-01-09T01:43:48.528Z,0
2017-01-09T01:44:48.993Z,0
2017-01-09T01:45:48.148Z,0
2017-01-09T01:46:48.946Z,0
2017-01-09T01:47:48.266Z,0
2017-01-09T01:48:48.222Z,0
2017-01-09T01:49:48.219Z,0
2017-01-09T01:50:48.183Z,0
2017-01-09T01:51:47.863Z,0
2017-01-09T01:52:49.087Z,0
2017-01-09T01:53:48.700Z,0
2017-01-09T01:54:48.682Z,0
2017-01-09T01:55:49.860Z,0
2017-01-09T01:56:48.227Z,0
2017-01-09T01:57:49.729Z,0
2017-01-09T01:58:47.941Z,0
2017-01-09T01:59:49.116Z,0
2017-01-09T02:00:48.305Z,0
2017-01-09T02:01:48.657Z,0
2017-01-09T02:02:49.152Z,0
2017-01-09T02:03:48.318Z,0
2017-01-09T02:04:48.678Z,0
2017-01-09T02:05:49.073Z,0
2017-01-09T02:06:48.492Z,0
2017-01-09T02:07:48.398Z,0
2017-01-09T02:08:50.233Z,0
2017-01-09T02:09:48.462Z,0
2017-01-09T02:10:48.766Z,0
2017-01-09T02:11:49.215Z,0
2017-01-09T02:12:49.184Z,0
2017-01-09T02:13:48.045Z,0
2017-01-09T02:14:49.138Z,0
2017-01-09T02:15:49.546Z,0
2017-01-09T02:16:48.413Z,0
2017-01-09T02:17:49.313Z,0
2017-01-09T02:18:48.866Z,0
2017-01-09T02:19:49.247Z,0
2017-01-09T02:20:48.831Z,0
2017-01-09T02:21:48.837Z,0
2017-01-09T02:22:48.400Z,0
2017-01-09T02:23:49.948Z,0
2017-01-09T02:24:48.017Z,0
2017-01-09T02:25:48.474Z,0
2017-01-09T02:26:48.678Z,0
2017-01-09T02:27:48.856Z,0
2017-01-09T02:28:48.452Z,0
2017-01-09T02:29:49.294Z,0
2017-01-09T02:30:48.460Z,0
2017-01-09T02:31:48.464Z,0
2017-01-09T02:32:48.122Z,0
2017-01-09T02:33:48.873Z,0
2017-01-09T02:34:48.928Z,0
2017-01-09T02:35:48.545Z,0
2017-01-09T02:36:48.394Z,0
2017-01-09T02:37:49.248Z,0
2017-01-09T02:38:48.664Z,0
2017-01-09T02:39:49.006Z,0
2017-01-09T02:40:48.175Z,0
2017-01-09T02:41:49.318Z,0
2017-01-09T02:42:48.540Z,0
2017-01-09T02:43:49.037Z,0
2017-01-09T02:44:49.389Z,0
2017-01-09T02:45:49.050Z,0
2017-01-09T02:46:49.005Z,0
2017-01-09T02:47:49.066Z,0
2017-01-09T02:48:50.547Z,0
2017-01-09T02:49:49.075Z,0
2017-01-09T02:50:49.885Z,0
2017-01-09T02:51:49.485Z,0
2017-01-09T02:52:48.603Z,0
2017-01-09T02:53:48.606Z,0
2017-01-09T02:54:48.617Z,0
2017-01-09T02:55:48.271Z,0
2017-01-09T02:56:49.032Z,0
2017-01-09T02:57:49.028Z,0
2017-01-09T02:58:48.644Z,0
2017-01-09T02:59:48.447Z,0
2017-01-09T03:00:49.149Z,0
2017-01-09T03:01:49.312Z,0
2017-01-09T03:02:48.719Z,0
2017-01-09T03:03:48.727Z,0
2017-01-09T03:04:48.284Z,0
2017-01-09T03:05:49.081Z,0
2017-01-09T03:06:48.846Z,0
2017-01-09T03:07:49.148Z,0
2017-01-09T03:08:49.103Z,0
2017-01-09T03:09:48.765Z,0
2017-01-09T03:10:49.874Z,0
2017-01-09T03:11:49.226Z,0
2017-01-09T03:12:49.625Z,0
2017-01-09T03:13:48.395Z,0
2017-01-09T03:14:50.725Z,0
2017-01-09T03:15:49.546Z,0
2017-01-09T03:16:49.307Z,0
2017-01-09T03:17:49.315Z,0
2017-01-09T03:18:48.779Z,0
2017-01-09T03:19:49.676Z,0
2017-01-09T03:20:48.496Z,0
2017-01-09T03:21:48.846Z,0
2017-01-09T03:22:49.249Z,0
2017-01-09T03:23:49.304Z,0
2017-01-09T03:24:48.469Z,0
2017-01-09T03:25:50.789Z,0
2017-01-09T03:26:49.226Z,0
2017-01-09T03:27:49.682Z,0
2017-01-09T03:28:49.739Z,0
2017-01-09T03:29:49.344Z,0
2017-01-09T03:30:49.305Z,0
2017-01-09T03:31:49.260Z,0
2017-01-09T03:32:49.364Z,0
2017-01-09T03:33:48.894Z,0
2017-01-09T03:34:49.377Z,0
2017-01-09T03:35:49.385Z,0
2017-01-09T03:36:50.500Z,0
2017-01-09T03:37:49.301Z,0
2017-01-09T03:38:48.962Z,0
2017-01-09T03:39:49.717Z,0
2017-01-09T03:40:48.979Z,0
2017-01-09T03:41:49.475Z,0
2017-01-09T03:42:49.734Z,0
2017-01-09T03:43:49.045Z,0
2017-01-09T03:44:49.447Z,0
2017-01-09T03:45:49.005Z,0
2017-01-09T03:46:49.461Z,0
2017-01-09T03:47:50.325Z,0
2017-01-09T03:48:48.634Z,0
2017-01-09T03:49:49.545Z,0
2017-01-09T03:50:49.559Z,0
2017-01-09T03:51:49.792Z,0
2017-01-09T03:52:49.452Z,0
2017-01-09T03:53:49.061Z,0
2017-01-09T03:54:48.674Z,0
2017-01-09T03:55:48.730Z,0
2017-01-09T03:56:49.131Z,0
2017-01-09T03:57:49.138Z,0
2017-01-09T03:58:48.709Z,0
2017-01-09T03:59:49.508Z,0
2017-01-09T04:00:49.953Z,0
2017-01-09T04:01:49.120Z,0
2017-01-09T04:02:49.526Z,0
2017-01-09T04:03:49.571Z,0
2017-01-09T04:04:49.244Z,0
2017-01-09T04:05:49.987Z,0
2017-01-09T04:06:49.896Z,0
2017-01-09T04:07:49.160Z,0
2017-01-09T04:08:49.164Z,0
2017-01-09T04:09:50.021Z,0
2017-01-09T04:10:48.783Z,0
2017-01-09T04:11:51.051Z,0
2017-01-09T04:12:49.986Z,0
2017-01-09T04:13:49.546Z,0
2017-01-09T04:14:49.212Z,0
2017-01-09T04:15:49.706Z,0
2017-01-09T04:16:49.222Z,0
2017-01-09T04:17:49.327Z,0
2017-01-09T04:18:49.234Z,0
2017-01-09T04:19:49.637Z,0
2017-01-09T04:20:50.045Z,0
2017-01-09T04:21:49.652Z,0
2017-01-09T04:22:49.711Z,0
2017-01-09T04:23:48.923Z,0
2017-01-09T04:24:49.278Z,0
2017-01-09T04:25:49.780Z,0
2017-01-09T04:26:48.939Z,0
2017-01-09T04:27:50.191Z,0
2017-01-09T04:28:49.698Z,0
2017-01-09T04:29:48.920Z,0
2017-01-09T04:30:50.108Z,0
2017-01-09T04:31:49.896Z,0
2017-01-09T04:32:49.727Z,0
2017-01-09T04:33:51.331Z,0
2017-01-09T04:34:50.132Z,0
2017-01-09T04:35:50.096Z,0
2017-01-09T04:36:49.406Z,0
2017-01-09T04:37:49.097Z,0
2017-01-09T04:38:49.717Z,0
2017-01-09T04:39:49.819Z,0
2017-01-09T04:40:49.382Z,0
2017-01-09T04:41:49.390Z,0
2017-01-09T04:42:50.189Z,0
2017-01-09T04:43:50.347Z,0
2017-01-09T04:44:51.156Z,0
2017-01-09T04:45:50.261Z,0
2017-01-09T04:46:50.124Z,0
2017-01-09T04:47:49.480Z,0
2017-01-09T04:48:49.436Z,0
2017-01-09T04:49:49.494Z,0
2017-01-09T04:50:49.819Z,0
2017-01-09T04:51:50.249Z,0
2017-01-09T04:52:49.964Z,0
2017-01-09T04:53:49.471Z,0
2017-01-09T04:54:50.224Z,0
2017-01-09T04:55:51.280Z,0
2017-01-09T04:56:49.886Z,0
2017-01-09T04:57:50.255Z,0
2017-01-09T04:59:04.781Z,0
2017-01-09T04:59:49.957Z,0
2017-01-09T05:00:50.313Z,0
2017-01-09T05:01:49.475Z,0
2017-01-09T05:02:49.978Z,0
2017-01-09T05:03:50.281Z,0
2017-01-09T05:04:49.893Z,0
2017-01-09T05:05:50.343Z,0
2017-01-09T05:06:51.203Z,0
2017-01-09T05:07:49.960Z,0
2017-01-09T05:08:50.471Z,0
2017-01-09T05:09:49.973Z,0
2017-01-09T05:10:49.588Z,0
2017-01-09T05:11:50.037Z,0
2017-01-09T05:12:49.646Z,0
2017-01-09T05:13:49.956Z,0
2017-01-09T05:14:50.056Z,0
2017-01-09T05:15:49.618Z,0
2017-01-09T05:16:49.675Z,0
2017-01-09T05:17:51.282Z,0
2017-01-09T05:18:50.389Z,0
2017-01-09T05:19:50.243Z,0
2017-01-09T05:20:49.699Z,0
2017-01-09T05:21:50.058Z,0
2017-01-09T05:22:49.667Z,0
2017-01-09T05:23:49.723Z,0
2017-01-09T05:24:50.472Z,0
2017-01-09T05:25:50.133Z,0
2017-01-09T05:26:49.293Z,0
2017-01-09T05:27:50.094Z,0
2017-01-09T05:28:50.775Z,0
2017-01-09T05:29:50.106Z,0
2017-01-09T05:30:49.725Z,0
2017-01-09T05:31:49.680Z,0
2017-01-09T05:32:51.529Z,0
2017-01-09T05:33:50.150Z,0
2017-01-09T05:34:50.144Z,0
2017-01-09T05:35:49.753Z,0
2017-01-09T05:36:50.106Z,0
2017-01-09T05:37:49.814Z,0
2017-01-09T05:38:49.774Z,0
2017-01-09T05:39:51.273Z,0
2017-01-09T05:40:50.580Z,0
2017-01-09T05:41:50.651Z,0
2017-01-09T05:42:50.545Z,0
2017-01-09T05:43:51.264Z,0
2017-01-09T05:44:50.213Z,0
2017-01-09T05:45:50.218Z,0
2017-01-09T05:46:50.206Z,0
2017-01-09T05:47:50.278Z,0
2017-01-09T05:48:49.790Z,0
2017-01-09T05:49:49.850Z,0
2017-01-09T05:50:50.299Z,0
2017-01-09T05:51:50.263Z,0
2017-01-09T05:52:52.188Z,0
2017-01-09T05:53:49.823Z,0
2017-01-09T05:54:51.081Z,0
2017-01-09T05:55:50.732Z,0
2017-01-09T05:56:49.998Z,0
2017-01-09T05:57:50.262Z,0
2017-01-09T05:58:50.714Z,0
2017-01-09T05:59:50.362Z,0
2017-01-09T06:00:50.823Z,0
2017-01-09T06:01:50.473Z,0
2017-01-09T06:02:49.980Z,0
2017-01-09T06:03:52.257Z,0
2017-01-09T06:04:49.896Z,0
2017-01-09T06:05:51.157Z,0
2017-01-09T06:06:49.616Z,0
2017-01-09T06:07:50.278Z,0
2017-01-09T06:08:49.975Z,0
2017-01-09T06:09:50.031Z,0
2017-01-09T06:10:50.834Z,0
2017-01-09T06:11:50.504Z,0
2017-01-09T06:12:50.056Z,0
2017-01-09T06:13:50.358Z,0
2017-01-09T06:14:50.117Z,0
2017-01-09T06:15:50.368Z,0
2017-01-09T06:16:51.427Z,0
2017-01-09T06:17:49.991Z,0
2017-01-09T06:18:50.836Z,0
2017-01-09T06:19:50.494Z,0
2017-01-09T06:20:50.501Z,0
2017-01-09T06:21:50.468Z,0
2017-01-09T06:22:50.418Z,0
2017-01-09T06:23:50.828Z,0
2017-01-09T06:24:50.973Z,0
2017-01-09T06:25:50.881Z,0
2017-01-09T06:26:50.490Z,0
2017-01-09T06:27:51.655Z,0
2017-01-09T06:28:50.453Z,0
2017-01-09T06:29:50.221Z,0
2017-01-09T06:30:50.865Z,0
2017-01-09T06:31:50.132Z,0
2017-01-09T06:32:50.533Z,0
2017-01-09T06:33:50.537Z,0
2017-01-09T06:34:50.549Z,0
2017-01-09T06:35:50.210Z,0
2017-01-09T06:36:50.562Z,0
2017-01-09T06:37:50.816Z,0
2017-01-09T06:38:51.991Z,0
2017-01-09T06:39:50.627Z,0
2017-01-09T06:40:50.641Z,0
2017-01-09T06:41:50.989Z,0
2017-01-09T06:42:50.549Z,0
2017-01-09T06:43:50.156Z,0
2017-01-09T06:44:50.663Z,0
2017-01-09T06:45:50.620Z,0
2017-01-09T06:46:50.232Z,0
2017-01-09T06:47:50.191Z,0
2017-01-09T06:48:50.390Z,0
2017-01-09T06:49:51.943Z,0
2017-01-09T06:50:50.754Z,0
2017-01-09T06:51:50.363Z,0
2017-01-09T06:52:50.221Z,0
2017-01-09T06:53:51.133Z,0
2017-01-09T06:54:50.782Z,0
2017-01-09T06:55:50.736Z,0
2017-01-09T06:56:49.907Z,0
2017-01-09T06:57:50.653Z,0
2017-01-09T06:58:51.056Z,0
2017-01-09T06:59:50.368Z,0
2017-01-09T07:00:51.228Z,0
2017-01-09T07:01:50.331Z,0
2017-01-09T07:02:50.782Z,0
2017-01-09T07:03:50.799Z,0
2017-01-09T07:04:50.308Z,0
2017-01-09T07:05:51.249Z,0
2017-01-09T07:06:50.709Z,0
2017-01-09T07:07:50.767Z,0
2017-01-09T07:08:50.746Z,0
2017-01-09T07:09:50.385Z,0
2017-01-09T07:10:50.493Z,0
2017-01-09T07:11:51.798Z,0
2017-01-09T07:12:50.803Z,0
2017-01-09T07:13:51.060Z,0
2017-01-09T07:14:50.470Z,0
2017-01-09T07:15:52.018Z,4
2017-01-09T07:16:50.830Z,4
2017-01-09T07:17:50.385Z,4
2017-01-09T07:18:50.404Z,4
2017-01-09T07:19:51.349Z,0
2017-01-09T07:20:50.858Z,0
2017-01-09T07:21:50.466Z,0
2017-01-09T07:22:51.425Z,4
2017-01-09T07:23:50.825Z,4
2017-01-09T07:24:50.489Z,4
2017-01-09T07:25:50.843Z,4
2017-01-09T07:26:51.895Z,4
2017-01-09T07:27:51.312Z,8
2017-01-09T07:28:52.182Z,4
2017-01-09T07:29:50.574Z,8
2017-01-09T07:30:51.319Z,8
2017-01-09T07:31:51.032Z,8
2017-01-09T07:32:50.889Z,8
2017-01-09T07:33:51.391Z,8
2017-01-09T07:34:51.000Z,12
2017-01-09T07:35:50.965Z,8
2017-01-09T07:36:51.411Z,12
2017-01-09T07:37:52.173Z,12
2017-01-09T07:38:50.186Z,16
2017-01-09T07:39:50.985Z,12
2017-01-09T07:40:51.443Z,16
2017-01-09T07:41:50.604Z,16
2017-01-09T07:42:50.661Z,16
2017-01-09T07:43:50.620Z,20
2017-01-09T07:44:50.671Z,20
2017-01-09T07:45:51.421Z,20
2017-01-09T07:46:50.638Z,24
2017-01-09T07:47:50.693Z,24
2017-01-09T07:48:51.949Z,24
2017-01-09T07:49:51.518Z,28
2017-01-09T07:50:50.216Z,32
2017-01-09T07:51:51.074Z,32
2017-01-09T07:52:51.521Z,40
2017-01-09T07:53:51.477Z,40
2017-01-09T07:54:51.089Z,44
2017-01-09T07:55:50.700Z,44
2017-01-09T07:56:51.059Z,44
2017-01-09T07:57:50.372Z,44
2017-01-09T07:58:51.516Z,48
2017-01-09T07:59:52.274Z,48
2017-01-09T08:00:51.528Z,48
2017-01-09T08:01:51.190Z,52
2017-01-09T08:02:51.103Z,56
2017-01-09T08:03:51.207Z,60
2017-01-09T08:04:51.163Z,60
2017-01-09T08:05:50.730Z,60
2017-01-09T08:06:50.781Z,64
2017-01-09T08:07:51.632Z,64
2017-01-09T08:08:50.452Z,68
2017-01-09T08:09:50.860Z,68
2017-01-09T08:10:51.858Z,72
2017-01-09T08:11:50.821Z,76
2017-01-09T08:12:50.777Z,76
2017-01-09T08:13:51.237Z,76
2017-01-09T08:14:50.897Z,80
2017-01-09T08:15:50.954Z,88
2017-01-09T08:16:51.357Z,88
2017-01-09T08:17:51.662Z,88
2017-01-09T08:18:50.882Z,88
2017-01-09T08:19:51.673Z,88
2017-01-09T08:20:51.290Z,88
2017-01-09T08:21:51.941Z,88
2017-01-09T08:22:50.906Z,92
2017-01-09T08:23:51.013Z,92
2017-01-09T08:24:50.920Z,96
2017-01-09T08:25:51.816Z,92
2017-01-09T08:26:51.278Z,96
2017-01-09T08:27:51.338Z,96
2017-01-09T08:29:06.226Z,100
2017-01-09T08:29:51.432Z,100
2017-01-09T08:30:50.978Z,100
2017-01-09T08:31:50.973Z,100
2017-01-09T08:32:51.681Z,96
2017-01-09T08:33:50.655Z,96
2017-01-09T08:34:53.008Z,96
2017-01-09T08:35:51.798Z,100
2017-01-09T08:36:50.963Z,96
2017-01-09T08:37:51.021Z,104
2017-01-09T08:38:51.474Z,104
2017-01-09T08:39:51.431Z,104
2017-01-09T08:40:51.783Z,104
2017-01-09T08:41:51.543Z,100
2017-01-09T08:42:51.058Z,100
2017-01-09T08:43:51.911Z,104
2017-01-09T08:44:51.470Z,108
2017-01-09T08:45:52.588Z,104
2017-01-09T08:46:51.986Z,108
2017-01-09T08:47:51.746Z,108
2017-01-09T08:48:51.503Z,116
2017-01-09T08:49:51.507Z,112
2017-01-09T08:50:51.173Z,116
2017-01-09T08:51:51.079Z,116
2017-01-09T08:52:51.486Z,116
2017-01-09T08:53:51.150Z,124
2017-01-09T08:54:51.600Z,124
2017-01-09T08:55:51.557Z,124
2017-01-09T08:56:52.620Z,124
2017-01-09T08:57:51.133Z,124
2017-01-09T08:58:51.284Z,132
2017-01-09T08:59:52.010Z,132
2017-01-09T09:00:50.752Z,136
2017-01-09T09:01:50.860Z,140
2017-01-09T09:02:51.711Z,136
2017-01-09T09:03:51.966Z,136
2017-01-09T09:04:51.285Z,136
2017-01-09T09:05:51.685Z,140
2017-01-09T09:06:51.593Z,144
2017-01-09T09:07:51.958Z,136
2017-01-09T09:08:52.203Z,136
2017-01-09T09:09:51.665Z,136
2017-01-09T09:10:51.286Z,136
2017-01-09T09:11:50.843Z,136
2017-01-09T09:12:51.987Z,136
2017-01-09T09:13:51.648Z,140
2017-01-09T09:14:51.755Z,144
2017-01-09T09:15:51.716Z,148
2017-01-09T09:16:51.326Z,148
2017-01-09T09:17:51.785Z,144
2017-01-09T09:18:52.237Z,148
2017-01-09T09:19:51.798Z,152
2017-01-09T09:20:51.752Z,152
2017-01-09T09:21:51.369Z,156
2017-01-09T09:22:51.770Z,164
2017-01-09T09:23:51.433Z,176
2017-01-09T09:24:52.282Z,184
2017-01-09T09:25:52.152Z,192
2017-01-09T09:26:52.248Z,188
2017-01-09T09:27:51.022Z,208
2017-01-09T09:28:51.870Z,208
2017-01-09T09:29:52.372Z,212
2017-01-09T09:30:51.835Z,200
2017-01-09T09:31:53.268Z,204
2017-01-09T09:32:51.947Z,216
2017-01-09T09:33:52.452Z,216
2017-01-09T09:34:52.255Z,220
2017-01-09T09:35:51.475Z,220
2017-01-09T09:36:51.928Z,220
2017-01-09T09:37:51.499Z,216
2017-01-09T09:38:51.845Z,200
2017-01-09T09:39:51.852Z,168
2017-01-09T09:40:52.461Z,144
2017-01-09T09:41:51.568Z,140
2017-01-09T09:42:51.579Z,148
2017-01-09T09:43:51.102Z,152
2017-01-09T09:44:52.194Z,164
2017-01-09T09:45:51.668Z,172
2017-01-09T09:46:51.959Z,180
2017-01-09T09:47:52.372Z,192
2017-01-09T09:48:51.971Z,208
2017-01-09T09:49:52.130Z,220
2017-01-09T09:50:52.335Z,240
2017-01-09T09:51:52.492Z,248
2017-01-09T09:52:52.108Z,248
2017-01-09T09:53:53.325Z,248
2017-01-09T09:54:51.975Z,248
2017-01-09T09:55:52.543Z,256
2017-01-09T09:56:52.036Z,272
2017-01-09T09:57:51.720Z,284
2017-01-09T09:58:51.655Z,296
2017-01-09T09:59:51.662Z,316
2017-01-09T10:00:52.167Z,332
2017-01-09T10:01:52.526Z,348
2017-01-09T10:02:52.087Z,360
2017-01-09T10:03:52.487Z,348
2017-01-09T10:04:53.589Z,372
2017-01-09T10:05:51.717Z,420
2017-01-09T10:06:52.120Z,472
2017-01-09T10:07:51.684Z,500
2017-01-09T10:08:52.334Z,512
2017-01-09T10:09:52.092Z,540
2017-01-09T10:10:52.566Z,516
2017-01-09T10:11:51.366Z,492
2017-01-09T10:12:52.660Z,496
2017-01-09T10:13:51.332Z,468
2017-01-09T10:14:52.577Z,472
2017-01-09T10:15:53.140Z,508
2017-01-09T10:16:52.196Z,608
2017-01-09T10:17:52.255Z,692
2017-01-09T10:18:52.265Z,716
2017-01-09T10:19:51.824Z,700
2017-01-09T10:20:52.180Z,800
2017-01-09T10:21:51.841Z,904
2017-01-09T10:22:52.221Z,876
2017-01-09T10:23:51.906Z,804
2017-01-09T10:24:51.913Z,764
2017-01-09T10:25:52.269Z,684
2017-01-09T10:26:53.226Z,668
2017-01-09T10:27:52.235Z,664
2017-01-09T10:28:51.998Z,724
2017-01-09T10:29:52.748Z,792
2017-01-09T10:30:53.610Z,748
2017-01-09T10:31:51.870Z,704
2017-01-09T10:32:52.820Z,748
2017-01-09T10:33:52.388Z,716
2017-01-09T10:34:52.739Z,624
2017-01-09T10:35:52.004Z,608
2017-01-09T10:36:52.358Z,600
2017-01-09T10:37:53.313Z,524
2017-01-09T10:38:52.376Z,508
2017-01-09T10:39:52.039Z,504
2017-01-09T10:40:52.387Z,524
2017-01-09T10:41:53.449Z,552
2017-01-09T10:42:52.456Z,564
2017-01-09T10:43:52.462Z,592
2017-01-09T10:44:52.818Z,636
2017-01-09T10:45:51.588Z,604
2017-01-09T10:46:52.491Z,564
2017-01-09T10:47:52.494Z,596
2017-01-09T10:48:52.501Z,620
2017-01-09T10:49:52.068Z,696
2017-01-09T10:50:52.074Z,724
2017-01-09T10:51:52.527Z,752
2017-01-09T10:52:53.589Z,836
2017-01-09T10:53:52.147Z,844
2017-01-09T10:54:52.899Z,832
2017-01-09T10:55:52.071Z,860
2017-01-09T10:56:52.963Z,904
2017-01-09T10:57:52.582Z,888
2017-01-09T10:58:52.153Z,872
2017-01-09T10:59:52.895Z,872
2017-01-09T11:00:52.497Z,752
2017-01-09T11:01:52.566Z,708
2017-01-09T11:02:51.725Z,716
2017-01-09T11:03:53.481Z,732
2017-01-09T11:04:52.291Z,700
2017-01-09T11:05:52.192Z,688
2017-01-09T11:06:52.601Z,676
2017-01-09T11:07:52.556Z,700
2017-01-09T11:08:52.220Z,732
2017-01-09T11:09:52.627Z,728
2017-01-09T11:10:53.032Z,704
2017-01-09T11:11:52.293Z,736
2017-01-09T11:12:52.301Z,712
2017-01-09T11:13:52.605Z,736
2017-01-09T11:14:53.311Z,796
2017-01-09T11:15:53.018Z,792
2017-01-09T11:16:52.284Z,776
2017-01-09T11:17:52.692Z,728
2017-01-09T11:18:52.006Z,688
2017-01-09T11:19:52.367Z,628
2017-01-09T11:20:52.365Z,592
2017-01-09T11:21:52.721Z,544
2017-01-09T11:22:52.766Z,488
2017-01-09T11:23:53.662Z,456
2017-01-09T11:24:52.395Z,432
2017-01-09T11:25:53.448Z,392
2017-01-09T11:26:52.760Z,360
2017-01-09T11:27:52.377Z,340
2017-01-09T11:28:52.731Z,308
2017-01-09T11:29:52.340Z,300
2017-01-09T11:30:52.846Z,304
2017-01-09T11:31:53.248Z,300
2017-01-09T11:32:52.412Z,340
2017-01-09T11:33:53.164Z,372
2017-01-09T11:34:52.480Z,384
2017-01-09T11:35:52.833Z,408
2017-01-09T11:36:53.339Z,472
2017-01-09T11:37:52.898Z,588
2017-01-09T11:38:54.341Z,688
2017-01-09T11:39:52.469Z,768
2017-01-09T11:40:52.927Z,804
2017-01-09T11:41:53.183Z,832
2017-01-09T11:42:52.890Z,816
2017-01-09T11:43:52.959Z,800
2017-01-09T11:44:52.902Z,748
2017-01-09T11:45:52.964Z,596
2017-01-09T11:46:52.876Z,588
2017-01-09T11:47:53.158Z,604
2017-01-09T11:48:52.538Z,648
2017-01-09T11:49:52.154Z,556
2017-01-09T11:50:52.962Z,552
2017-01-09T11:51:53.410Z,568
2017-01-09T11:52:52.175Z,536
2017-01-09T11:53:52.649Z,496
2017-01-09T11:54:52.638Z,452
2017-01-09T11:55:53.437Z,424
2017-01-09T11:56:53.448Z,384
2017-01-09T11:57:52.662Z,352
2017-01-09T11:58:52.721Z,332
2017-01-09T11:59:52.580Z,304
2017-01-09T12:00:54.035Z,280
2017-01-09T12:01:52.989Z,260
2017-01-09T12:02:53.444Z,264
2017-01-09T12:03:52.760Z,264
2017-01-09T12:04:53.460Z,272
2017-01-09T12:05:52.677Z,276
2017-01-09T12:06:52.758Z,284
2017-01-09T12:07:53.580Z,320
2017-01-09T12:08:53.045Z,360
2017-01-09T12:09:53.448Z,396
2017-01-09T12:10:52.813Z,420
2017-01-09T12:11:54.343Z,416
2017-01-09T12:12:53.072Z,372
2017-01-09T12:13:52.744Z,360
2017-01-09T12:14:52.347Z,384
2017-01-09T12:15:53.248Z,376
2017-01-09T12:16:52.813Z,392
2017-01-09T12:17:53.561Z,392
2017-01-09T12:18:52.738Z,352
2017-01-09T12:19:52.732Z,336
2017-01-09T12:20:53.187Z,340
2017-01-09T12:21:53.196Z,328
2017-01-09T12:22:54.205Z,304
2017-01-09T12:23:53.266Z,288
2017-01-09T12:24:52.825Z,272
2017-01-09T12:25:52.881Z,256
2017-01-09T12:26:52.394Z,252
2017-01-09T12:27:52.895Z,252
2017-01-09T12:28:53.300Z,264
2017-01-09T12:29:53.207Z,272
2017-01-09T12:30:52.871Z,248
2017-01-09T12:31:52.831Z,228
2017-01-09T12:32:52.615Z,220
2017-01-09T12:33:54.241Z,212
2017-01-09T12:34:53.743Z,216
2017-01-09T12:35:52.959Z,212
2017-01-09T12:36:52.874Z,216
2017-01-09T12:37:53.305Z,212
2017-01-09T12:38:53.723Z,216
2017-01-09T12:39:53.339Z,224
2017-01-09T12:40:53.394Z,232
2017-01-09T12:41:53.700Z,264
2017-01-09T12:42:53.016Z,304
2017-01-09T12:43:53.764Z,344
2017-01-09T12:44:53.384Z,376
2017-01-09T12:45:53.404Z,372
2017-01-09T12:46:54.916Z,392
2017-01-09T12:47:53.798Z,412
2017-01-09T12:48:54.014Z,432
2017-01-09T12:49:53.414Z,428
2017-01-09T12:50:53.034Z,412
2017-01-09T12:51:53.431Z,420
2017-01-09T12:52:53.045Z,436
2017-01-09T12:53:53.843Z,444
2017-01-09T12:54:53.506Z,456
2017-01-09T12:55:53.563Z,448
2017-01-09T12:56:53.473Z,444
2017-01-09T12:57:53.428Z,440
2017-01-09T12:58:53.937Z,432
2017-01-09T12:59:54.096Z,420
2017-01-09T13:00:53.454Z,424
2017-01-09T13:01:53.513Z,420
2017-01-09T13:02:53.074Z,412
2017-01-09T13:03:53.926Z,404
2017-01-09T13:04:53.094Z,400
2017-01-09T13:05:53.595Z,396
2017-01-09T13:06:53.567Z,376
2017-01-09T13:07:53.557Z,368
2017-01-09T13:08:53.298Z,356
2017-01-09T13:09:53.625Z,348
2017-01-09T13:10:54.029Z,348
2017-01-09T13:11:52.769Z,356
2017-01-09T13:12:53.551Z,360
2017-01-09T13:13:52.913Z,360
2017-01-09T13:14:54.113Z,356
2017-01-09T13:15:53.279Z,356
2017-01-09T13:16:54.079Z,348
2017-01-09T13:17:53.695Z,344
2017-01-09T13:18:53.303Z,336
2017-01-09T13:19:55.058Z,332
2017-01-09T13:20:53.712Z,324
2017-01-09T13:21:54.065Z,328
2017-01-09T13:22:53.335Z,324
2017-01-09T13:23:53.741Z,312
2017-01-09T13:24:54.089Z,300
2017-01-09T13:25:53.308Z,304
2017-01-09T13:26:54.111Z,312
2017-01-09T13:27:53.328Z,300
2017-01-09T13:28:53.830Z,296
2017-01-09T13:29:53.046Z,304
2017-01-09T13:30:54.657Z,308
2017-01-09T13:31:53.753Z,312
2017-01-09T13:32:54.154Z,316
2017-01-09T13:33:53.371Z,332
2017-01-09T13:34:54.971Z,348
2017-01-09T13:35:53.736Z,352
2017-01-09T13:36:53.344Z,372
2017-01-09T13:37:53.752Z,380
2017-01-09T13:38:53.859Z,372
2017-01-09T13:39:54.268Z,372
2017-01-09T13:40:53.435Z,360
2017-01-09T13:41:54.382Z,364
2017-01-09T13:42:53.894Z,368
2017-01-09T13:43:54.244Z,388
2017-01-09T13:44:53.856Z,392
2017-01-09T13:45:54.910Z,384
2017-01-09T13:46:53.474Z,384
2017-01-09T13:47:53.035Z,384
2017-01-09T13:48:53.937Z,376
2017-01-09T13:49:54.290Z,376
2017-01-09T13:50:53.900Z,380
2017-01-09T13:51:54.011Z,376
2017-01-09T13:52:53.775Z,372
2017-01-09T13:53:53.627Z,364
2017-01-09T13:54:55.511Z,352
2017-01-09T13:55:53.891Z,356
2017-01-09T13:56:54.625Z,348
2017-01-09T13:57:53.612Z,344
2017-01-09T13:58:53.961Z,336
2017-01-09T13:59:54.421Z,320
2017-01-09T14:00:54.384Z,308
2017-01-09T14:01:54.036Z,292
2017-01-09T14:02:53.204Z,280
2017-01-09T14:03:54.309Z,280
2017-01-09T14:04:53.618Z,308
2017-01-09T14:05:55.600Z,340
2017-01-09T14:06:53.682Z,348
2017-01-09T14:07:54.051Z,356
2017-01-09T14:08:54.046Z,352
2017-01-09T14:09:54.351Z,352
2017-01-09T14:10:54.111Z,352
2017-01-09T14:11:54.117Z,372
2017-01-09T14:12:54.522Z,356
2017-01-09T14:13:54.530Z,352
2017-01-09T14:14:53.671Z,356
2017-01-09T14:15:54.156Z,360
2017-01-09T14:16:55.258Z,368
2017-01-09T14:17:54.171Z,356
2017-01-09T14:18:54.285Z,348
2017-01-09T14:19:53.735Z,340